Time;durP1;ratioP1;P1;durP2;ratioP2;P2;SDS_P1;SDS_P2;PMS_P1;PMS_P2;Temp;Humidity;BMP_temperature;BMP_pressure;BME280_temperature;BME280_humidity;BME280_pressure;Samples;Min_cycle;Max_cycle;Signal;HPM_P1;HPM_P2
2023/04/21 00:01:31;;;;;;;14.43;11.82;;;7.40;99.90;;;;;;5007155;28;20252;-91
2023/04/21 00:04:00;;;;;;;16.02;12.60;;;7.40;99.90;;;;;;5035797;28;20203;-90
2023/04/21 00:09:28;;;;;;;15.00;12.15;;;7.40;99.90;;;;;;5004692;28;20626;-90
2023/04/21 00:11:55;;;;;;;14.23;12.35;;;7.40;99.90;;;;;;5023237;28;20202;-90
2023/04/21 00:14:22;;;;;;;16.58;13.23;;;7.40;99.90;;;;;;5033595;28;20207;-91
2023/04/21 00:16:51;;;;;;;17.65;12.50;;;7.40;99.90;;;;;;5016667;28;20212;-91
2023/04/21 00:19:38;;;;;;;15.63;13.02;;;7.40;99.90;;;;;;5021084;28;20234;-91
2023/04/21 00:24:46;;;;;;;20.10;12.63;;;7.40;99.90;;;;;;5014213;28;20652;-91
2023/04/21 00:27:14;;;;;;;14.70;12.00;;;7.40;99.90;;;;;;5028390;28;20231;-91
2023/04/21 00:29:41;;;;;;;15.63;12.25;;;7.60;99.90;;;;;;5023430;28;20271;-90
2023/04/21 00:32:09;;;;;;;14.55;12.77;;;7.60;99.90;;;;;;5011020;28;20199;-90
2023/04/21 00:34:37;;;;;;;16.20;13.13;;;7.50;99.90;;;;;;5034196;28;20198;-91
2023/04/21 00:37:04;;;;;;;16.08;13.68;;;7.50;99.90;;;;;;5028597;28;20235;-90
2023/04/21 00:39:31;;;;;;;19.65;13.98;;;7.50;99.90;;;;;;5021892;28;20218;-91
2023/04/21 00:41:58;;;;;;;17.15;14.15;;;7.40;99.90;;;;;;5040088;28;20201;-90
2023/04/21 00:44:25;;;;;;;18.33;14.02;;;7.30;99.90;;;;;;5047246;28;20218;-91
2023/04/21 00:47:12;;;;;;;15.18;13.07;;;7.40;99.90;;;;;;5011522;28;20223;-91
2023/04/21 00:52:22;;;;;;;16.17;13.73;;;7.60;99.90;;;;;;5005697;28;20209;-91
2023/04/21 00:57:32;;;;;;;16.20;13.35;;;7.40;99.90;;;;;;5024452;28;20261;-91
2023/04/21 01:08:05;;;;;;;18.42;14.52;;;7.40;99.90;;;;;;5025480;28;20237;-91
2023/04/21 01:10:32;;;;;;;16.67;13.85;;;7.30;99.90;;;;;;5026857;28;20226;-91
2023/04/21 01:12:59;;;;;;;18.67;13.95;;;7.40;99.90;;;;;;5032466;28;20217;-91
2023/04/21 01:18:06;;;;;;;17.33;13.95;;;7.40;99.90;;;;;;5017942;28;20248;-91
2023/04/21 01:25:58;;;;;;;18.75;14.43;;;7.50;99.90;;;;;;5025183;28;20194;-90
2023/04/21 01:33:48;;;;;;;16.92;13.52;;;7.60;99.90;;;;;;5019495;28;20198;-91
2023/04/21 01:38:57;;;;;;;14.88;12.27;;;7.70;99.90;;;;;;4986928;28;20195;-90
2023/04/21 01:41:24;;;;;;;13.93;12.00;;;7.60;99.90;;;;;;5025569;28;20206;-93
2023/04/21 01:43:51;;;;;;;16.63;12.70;;;7.60;99.90;;;;;;5033777;28;20823;-93
2023/04/21 01:49:19;;;;;;;14.02;11.80;;;7.60;99.90;;;;;;5014037;28;20202;-93
2023/04/21 01:51:46;;;;;;;14.30;11.95;;;7.70;99.90;;;;;;5023030;28;20210;-92
2023/04/21 01:54:15;;;;;;;16.23;13.20;;;7.70;99.90;;;;;;5011312;28;20822;-92
2023/04/21 01:59:44;;;;;;;16.02;12.93;;;7.60;99.90;;;;;;5005394;28;20578;-92
2023/04/21 02:02:11;;;;;;;15.85;12.45;;;7.50;99.90;;;;;;5025860;28;20209;-93
2023/04/21 02:04:38;;;;;;;15.43;12.65;;;7.50;99.90;;;;;;5024198;28;20206;-91
2023/04/21 02:12:28;;;;;;;15.15;12.88;;;7.70;99.90;;;;;;5023545;28;20202;-93
2023/04/21 02:14:55;;;;;;;16.67;12.73;;;7.70;99.90;;;;;;5004865;28;20199;-93
2023/04/21 02:17:22;;;;;;;14.43;12.85;;;7.70;99.90;;;;;;5024934;28;20218;-92
2023/04/21 02:19:49;;;;;;;16.70;12.40;;;7.60;99.90;;;;;;5022214;28;20199;-93
2023/04/21 02:22:16;;;;;;;13.90;12.40;;;7.60;99.90;;;;;;5022039;28;20202;-93
2023/04/21 02:32:48;;;;;;;19.75;13.95;;;7.60;99.90;;;;;;5013085;28;20206;-92
2023/04/21 02:35:15;;;;;;;18.98;12.88;;;7.50;99.90;;;;;;5021079;28;20203;-92
2023/04/21 02:40:44;;;;;;;16.45;13.60;;;7.30;99.90;;;;;;5015723;28;20253;-92
2023/04/21 02:46:21;;;;;;;15.82;13.10;;;7.30;99.90;;;;;;4973392;28;20210;-91
2023/04/21 02:48:47;;;;;;;14.10;12.18;;;7.30;99.90;;;;;;5006303;28;20199;-91
2023/04/21 02:53:56;;;;;;;16.38;13.30;;;7.40;99.90;;;;;;5013624;28;20651;-92
2023/04/21 03:04:36;;;;;;;14.55;12.52;;;7.60;99.90;;;;;;5028012;28;20646;-93
2023/04/21 03:07:03;;;;;;;16.80;12.30;;;7.60;99.90;;;;;;5029981;28;20233;-91
2023/04/21 03:09:30;;;;;;;16.60;13.32;;;7.50;99.90;;;;;;5021579;28;20199;-90
2023/04/21 03:12:10;;;;;;;14.60;12.93;;;7.40;99.90;;;;;;5024008;28;20203;-91
2023/04/21 03:17:19;;;;;;;18.77;14.35;;;7.40;99.90;;;;;;4983860;28;20581;-91
2023/04/21 03:19:46;;;;;;;17.85;14.73;;;7.40;99.90;;;;;;5028746;28;20199;-91
2023/04/21 03:22:13;;;;;;;16.63;13.30;;;7.50;99.90;;;;;;5028110;28;20202;-91
2023/04/21 03:24:40;;;;;;;15.38;12.80;;;7.40;99.90;;;;;;5025432;28;20224;-91
2023/04/21 03:27:07;;;;;;;14.65;12.25;;;7.30;99.90;;;;;;5030206;28;20579;-91
2023/04/21 03:29:33;;;;;;;13.98;11.13;;;7.30;99.90;;;;;;5031608;28;20210;-90
2023/04/21 03:34:42;;;;;;;12.88;10.88;;;7.20;99.90;;;;;;5035384;28;20202;-90
2023/04/21 03:37:09;;;;;;;14.45;10.65;;;7.20;99.90;;;;;;5023275;28;20217;-91
2023/04/21 03:39:37;;;;;;;11.88;10.32;;;7.20;99.90;;;;;;5033195;28;20260;-90
2023/04/21 03:42:04;;;;;;;12.60;10.77;;;7.20;99.90;;;;;;5021755;28;20206;-90
2023/04/21 03:44:31;;;;;;;14.43;10.93;;;7.10;99.90;;;;;;5030064;28;20203;-91
2023/04/21 03:46:58;;;;;;;13.02;10.85;;;7.10;99.90;;;;;;5029391;28;20227;-91
2023/04/21 03:52:07;;;;;;;12.20;10.90;;;7.10;99.90;;;;;;5028185;28;20213;-91
2023/04/21 03:54:34;;;;;;;14.73;11.27;;;7.00;99.90;;;;;;5025376;28;20213;-91
2023/04/21 03:57:01;;;;;;;11.88;10.57;;;7.10;99.90;;;;;;5025722;28;20209;-90
2023/04/21 03:59:28;;;;;;;12.55;11.02;;;7.10;99.90;;;;;;5028359;28;20209;-91
2023/04/21 04:01:55;;;;;;;13.15;11.13;;;7.00;99.90;;;;;;5032910;28;20218;-91
2023/04/21 04:04:21;;;;;;;11.63;10.43;;;6.90;99.90;;;;;;5040960;28;20212;-91
2023/04/21 04:12:11;;;;;;;12.45;10.90;;;6.90;99.90;;;;;;5023472;28;20248;-90
2023/04/21 04:14:38;;;;;;;12.95;11.05;;;6.90;99.90;;;;;;5031199;28;20198;-90
2023/04/21 04:17:05;;;;;;;12.02;10.63;;;6.90;99.90;;;;;;5021226;28;20252;-91
2023/04/21 04:24:56;;;;;;;13.05;10.05;;;7.00;99.90;;;;;;5022261;28;20244;-90
2023/04/21 04:27:24;;;;;;;12.15;10.23;;;7.00;99.90;;;;;;5039229;28;20309;-91
2023/04/21 04:29:51;;;;;;;12.20;10.10;;;6.90;99.90;;;;;;5031741;28;20267;-91
2023/04/21 04:32:18;;;;;;;11.02;9.40;;;6.80;99.90;;;;;;5020116;28;20206;-91
2023/04/21 04:34:48;;;;;;;11.70;10.45;;;6.80;99.90;;;;;;5019782;28;20252;-90
2023/04/21 04:37:16;;;;;;;13.77;10.52;;;6.80;99.90;;;;;;5024005;28;20211;-90
2023/04/21 04:39:43;;;;;;;14.15;11.65;;;6.80;99.90;;;;;;5033647;28;20210;-89
2023/04/21 04:42:11;;;;;;;12.68;10.70;;;6.70;99.90;;;;;;5030456;28;20202;-89
2023/04/21 04:44:40;;;;;;;13.13;10.82;;;6.80;99.90;;;;;;5025404;28;20263;-92
2023/04/21 04:47:07;;;;;;;13.13;10.23;;;6.90;99.90;;;;;;5029383;28;20226;-89
2023/04/21 04:49:34;;;;;;;14.60;10.55;;;6.90;99.90;;;;;;5040510;28;20186;-92
2023/04/21 04:52:01;;;;;;;12.57;10.80;;;6.90;99.90;;;;;;5026545;28;20202;-90
2023/04/21 04:54:29;;;;;;;14.18;11.15;;;7.00;99.90;;;;;;5027054;28;20282;-92
2023/04/21 04:56:57;;;;;;;13.32;10.90;;;7.10;99.90;;;;;;5026508;28;20206;-92
2023/04/21 04:59:24;;;;;;;11.70;9.88;;;7.00;99.90;;;;;;5027013;28;20195;-90
2023/04/21 05:01:51;;;;;;;17.92;10.73;;;7.10;99.90;;;;;;5026178;28;20666;-88
2023/04/21 05:04:18;;;;;;;12.10;10.30;;;7.20;99.90;;;;;;5023883;28;20606;-89
2023/04/21 05:06:45;;;;;;;13.57;11.10;;;7.20;99.90;;;;;;5033963;28;20199;-89
2023/04/21 05:09:12;;;;;;;13.88;11.00;;;7.10;99.90;;;;;;5023640;28;20261;-88
2023/04/21 05:11:40;;;;;;;18.63;11.07;;;7.10;99.90;;;;;;5022103;28;20209;-88
2023/04/21 05:14:07;;;;;;;16.23;11.15;;;7.20;99.90;;;;;;5021733;28;20265;-88
2023/04/21 05:16:34;;;;;;;19.35;10.98;;;7.20;99.90;;;;;;5029435;28;20197;-89
2023/04/21 05:19:01;;;;;;;16.48;11.02;;;7.10;99.90;;;;;;5028104;28;20706;-89
2023/04/21 05:21:30;;;;;;;15.60;11.77;;;7.10;99.90;;;;;;5017330;28;20194;-85
2023/04/21 05:23:58;;;;;;;13.10;11.55;;;7.00;99.90;;;;;;5025569;28;20258;-87
2023/04/21 05:26:26;;;;;;;16.05;11.98;;;7.00;99.90;;;;;;5019923;28;20198;-89
2023/04/21 05:28:55;;;;;;;12.60;11.13;;;7.00;99.90;;;;;;5020473;28;20706;-87
2023/04/21 05:31:22;;;;;;;14.02;11.65;;;7.10;99.90;;;;;;5024548;28;20228;-89
2023/04/21 05:33:51;;;;;;;13.82;11.35;;;7.10;99.90;;;;;;5027153;28;20206;-91
2023/04/21 05:36:19;;;;;;;13.25;11.40;;;7.10;99.90;;;;;;5019958;28;20655;-90
2023/04/21 05:38:45;;;;;;;12.77;11.07;;;7.20;99.90;;;;;;5025702;28;20660;-90
2023/04/21 05:43:55;;;;;;;21.33;12.32;;;7.60;99.90;;;;;;5025278;28;20199;-89
2023/04/21 05:46:42;;;;;;;14.82;11.70;;;7.70;99.90;;;;;;5028601;28;20258;-90
2023/04/21 05:49:14;;;;;;;14.80;11.35;;;7.70;99.90;;;;;;5035817;28;20222;-89
2023/04/21 05:51:41;;;;;;;16.63;11.73;;;7.80;99.90;;;;;;5010951;28;20565;-89
2023/04/21 05:54:08;;;;;;;16.10;11.30;;;7.90;99.90;;;;;;5020856;28;20207;-90
2023/04/21 05:56:35;;;;;;;16.48;11.85;;;7.90;99.80;;;;;;5023166;28;20206;-89
2023/04/21 06:01:44;;;;;;;13.70;11.77;;;8.10;99.90;;;;;;5022042;28;20213;-90
2023/04/21 06:04:13;;;;;;;12.38;10.98;;;8.10;99.90;;;;;;5029092;28;20316;-89
2023/04/21 06:06:40;;;;;;;13.65;11.82;;;8.30;99.90;;;;;;5029805;28;20194;-90
2023/04/21 06:09:08;;;;;;;13.73;11.23;;;8.50;99.20;;;;;;5022239;28;20576;-88
2023/04/21 06:11:35;;;;;;;17.08;12.65;;;8.90;98.40;;;;;;5028071;28;20206;-89
2023/04/21 06:14:04;;;;;;;12.73;10.77;;;9.20;97.30;;;;;;5034609;28;20198;-90
2023/04/21 06:16:33;;;;;;;11.90;10.68;;;9.50;96.00;;;;;;5027777;28;20217;-89
2023/04/21 06:19:00;;;;;;;12.70;10.35;;;9.80;96.00;;;;;;5021874;28;20219;-89
2023/04/21 06:21:27;;;;;;;15.43;11.73;;;10.00;94.30;;;;;;5021356;28;20202;-91
2023/04/21 06:23:54;;;;;;;12.32;10.90;;;9.90;94.30;;;;;;5028917;28;20751;-89
2023/04/21 06:26:21;;;;;;;12.15;10.75;;;10.20;93.40;;;;;;5027251;28;20208;-89
2023/04/21 06:28:48;;;;;;;14.70;10.85;;;10.40;93.00;;;;;;5030920;28;20214;-88
2023/04/21 06:33:58;;;;;;;15.02;9.98;;;10.70;90.60;;;;;;5024375;28;20209;-89
2023/04/21 06:36:24;;;;;;;13.65;11.10;;;10.60;90.40;;;;;;5018510;28;20206;-90
2023/04/21 06:41:35;;;;;;;12.18;9.63;;;10.90;90.50;;;;;;5015093;28;20282;-92
2023/04/21 06:44:02;;;;;;;11.98;10.65;;;11.10;89.50;;;;;;5014606;28;20198;-92
2023/04/21 06:49:12;;;;;;;11.60;9.75;;;11.60;89.70;;;;;;5027892;28;20618;-91
2023/04/21 06:59:43;;;;;;;12.80;10.57;;;11.50;81.70;;;;;;4962647;28;20298;-92
2023/04/21 07:04:52;;;;;;;12.63;10.75;;;11.00;87.10;;;;;;5012989;28;20207;-92
2023/04/21 07:07:19;;;;;;;12.18;10.45;;;11.10;86.80;;;;;;5026580;28;20202;-93
2023/04/21 07:09:47;;;;;;;13.05;9.93;;;11.10;86.80;;;;;;5025108;28;20219;-93
2023/04/21 07:12:15;;;;;;;13.00;10.07;;;11.10;88.70;;;;;;5026717;28;20644;-91
2023/04/21 07:14:42;;;;;;;12.48;9.90;;;11.20;87.90;;;;;;5023790;28;20224;-93
2023/04/21 07:17:11;;;;;;;10.88;9.73;;;11.40;88.10;;;;;;5027842;28;20213;-92
2023/04/21 07:19:38;;;;;;;13.65;9.65;;;11.50;85.70;;;;;;5024409;28;20210;-92
2023/04/21 07:22:05;;;;;;;10.48;9.10;;;11.50;86.40;;;;;;5029842;28;20287;-92
2023/04/21 07:24:34;;;;;;;10.85;9.27;;;11.50;84.30;;;;;;5030669;28;20205;-93
2023/04/21 07:27:02;;;;;;;10.70;9.50;;;11.70;84.30;;;;;;5041451;28;20211;-91
2023/04/21 07:29:33;;;;;;;13.25;9.15;;;11.70;83.10;;;;;;5036100;28;20206;-92
2023/04/21 07:32:01;;;;;;;11.07;9.32;;;11.60;84.20;;;;;;5053588;28;20218;-92
2023/04/21 07:37:10;;;;;;;10.27;9.00;;;12.00;81.20;;;;;;5022136;28;20203;-93
2023/04/21 07:39:39;;;;;;;11.13;9.32;;;12.30;77.30;;;;;;5032717;28;20658;-92
2023/04/21 07:42:27;;;;;;;10.93;8.48;;;12.00;81.30;;;;;;5015653;28;20540;-93
2023/04/21 07:44:56;;;;;;;9.77;8.77;;;12.40;78.40;;;;;;5031415;28;20210;-92
2023/04/21 07:47:23;;;;;;;11.63;8.57;;;12.60;75.50;;;;;;5037110;28;20190;-93
2023/04/21 07:57:39;;;;;;;9.77;8.00;;;12.60;71.50;;;;;;5358542;23;20223;-94
2023/04/21 08:00:08;;;;;;;8.80;7.90;;;12.80;73.60;;;;;;5274869;23;20227;-94
2023/04/21 08:02:54;;;;;;;10.32;7.75;;;13.40;76.00;;;;;;5009004;28;20195;-95
2023/04/21 08:05:21;;;;;;;7.90;7.05;;;13.60;65.90;;;;;;5016320;28;20203;-93
2023/04/21 08:32:37;;;;;;;8.48;7.18;;;14.30;51.40;;;;;;5054345;28;20244;-93
2023/04/21 08:35:05;;;;;;;7.20;6.47;;;14.40;51.70;;;;;;5051593;28;20548;-95
2023/04/21 08:37:32;;;;;;;8.40;7.32;;;14.50;50.00;;;;;;5047865;28;20232;-91
2023/04/21 08:39:59;;;;;;;8.38;7.18;;;14.60;47.60;;;;;;5040825;28;20204;-92
2023/04/21 08:42:48;;;;;;;8.80;7.45;;;14.50;46.40;;;;;;5027097;28;20205;-88
2023/04/21 08:48:28;;;;;;;9.95;8.02;;;14.00;50.50;;;;;;5047582;28;20218;-91
2023/04/21 08:51:00;;;;;;;9.05;7.80;;;13.40;58.40;;;;;;5048619;28;20641;-91
2023/04/21 08:53:28;;;;;;;9.23;7.65;;;13.50;62.70;;;;;;5048321;28;20202;-89
2023/04/21 08:56:00;;;;;;;12.38;9.00;;;13.70;59.20;;;;;;5049444;28;20201;-90
2023/04/21 08:58:47;;;;;;;11.10;8.48;;;13.80;55.60;;;;;;5056414;28;20197;-94
2023/04/21 09:01:21;;;;;;;9.43;8.15;;;13.80;57.30;;;;;;5048791;28;20205;-94
2023/04/21 09:03:48;;;;;;;9.63;8.63;;;14.20;58.40;;;;;;5058980;28;20211;-94
2023/04/21 09:08:56;;;;;;;10.90;9.25;;;15.90;42.90;;;;;;5055082;28;20241;-95
2023/04/21 09:14:08;;;;;;;10.10;8.63;;;18.70;26.80;;;;;;5048044;28;20190;-92
2023/04/21 09:16:36;;;;;;;10.35;9.35;;;19.30;25.60;;;;;;5051122;28;20194;-94
2023/04/21 09:19:03;;;;;;;11.40;9.50;;;18.80;25.10;;;;;;5033161;28;20288;-94
2023/04/21 09:21:31;;;;;;;10.02;9.02;;;17.90;27.20;;;;;;5030340;28;20202;-92
2023/04/21 09:24:05;;;;;;;8.32;7.55;;;17.90;30.30;;;;;;5037386;28;20191;-92
2023/04/21 09:26:33;;;;;;;9.27;7.90;;;18.70;26.40;;;;;;5038581;28;20205;-94
2023/04/21 09:29:00;;;;;;;9.35;8.27;;;19.10;26.20;;;;;;5036828;28;20225;-93
2023/04/21 09:31:28;;;;;;;8.88;7.75;;;19.60;23.00;;;;;;5026507;28;20199;-94
2023/04/21 09:34:00;;;;;;;10.02;8.32;;;19.80;22.90;;;;;;5030073;28;20202;-94
2023/04/21 09:36:29;;;;;;;8.20;7.40;;;20.00;22.60;;;;;;5385847;22;20234;-93
2023/04/21 09:38:57;;;;;;;8.05;7.25;;;20.30;23.20;;;;;;5055668;28;20210;-95
2023/04/21 09:41:24;;;;;;;9.05;7.57;;;20.00;21.40;;;;;;5054366;28;20206;-93
2023/04/21 09:43:51;;;;;;;8.23;7.43;;;20.40;21.20;;;;;;5046293;28;20199;-92
2023/04/21 09:46:20;;;;;;;8.25;7.38;;;20.50;20.70;;;;;;5048050;28;20205;-93
2023/04/21 09:48:47;;;;;;;8.02;7.25;;;20.50;20.60;;;;;;5052636;28;20210;-93
2023/04/21 09:51:20;;;;;;;7.45;6.72;;;20.50;20.70;;;;;;5060137;28;20198;-94
2023/04/21 09:53:49;;;;;;;7.38;6.68;;;20.90;19.40;;;;;;5046703;28;20202;-93
2023/04/21 09:56:21;;;;;;;7.10;6.32;;;20.90;18.80;;;;;;5047052;28;20202;-93
2023/04/21 09:58:53;;;;;;;9.23;6.63;;;20.80;19.30;;;;;;5038724;28;20698;-93
2023/04/21 10:01:21;;;;;;;7.88;6.65;;;21.50;18.00;;;;;;5046619;28;20209;-93
2023/04/21 10:03:49;;;;;;;9.13;7.35;;;21.70;17.70;;;;;;5057695;28;20229;-93
2023/04/21 10:08:46;;;;;;;10.15;8.07;;;21.50;17.90;;;;;;5025844;28;20227;-93
2023/04/21 10:11:14;;;;;;;8.23;7.38;;;21.20;18.30;;;;;;5214189;23;20244;-92
2023/04/21 10:13:42;;;;;;;9.10;7.25;;;21.10;19.30;;;;;;5055941;28;20184;-91
2023/04/21 10:16:10;;;;;;;8.82;8.02;;;21.10;18.90;;;;;;5429287;22;20664;-93
2023/04/21 10:18:38;;;;;;;10.20;8.98;;;20.60;19.60;;;;;;5057762;28;20229;-93
2023/04/21 10:21:08;;;;;;;10.68;9.15;;;20.00;20.30;;;;;;5055981;28;20256;-92
2023/04/21 10:23:39;;;;;;;12.48;11.13;;;20.10;22.40;;;;;;5220530;23;20226;-91
2023/04/21 10:26:13;;;;;;;11.82;10.63;;;20.30;21.50;;;;;;5541393;22;20198;-89
2023/04/21 10:38:57;;;;;;;14.05;11.90;;;20.00;24.10;;;;;;5291357;22;20237;-92
2023/04/21 10:49:21;;;;;;;10.32;9.32;;;20.20;23.80;;;;;;6012439;22;20216;-92
2023/04/21 10:54:17;;;;;;;11.52;9.05;;;20.40;25.70;;;;;;5132816;23;20233;-90
2023/04/21 10:56:44;;;;;;;10.02;9.00;;;20.30;26.70;;;;;;5063104;28;20213;-91
2023/04/21 10:59:11;;;;;;;11.15;10.00;;;20.50;23.70;;;;;;5253164;23;20214;-94
2023/04/21 11:01:40;;;;;;;10.85;9.85;;;20.80;22.10;;;;;;5062393;28;20192;-94
2023/04/21 11:04:07;;;;;;;13.90;11.60;;;20.20;24.90;;;;;;5202745;23;20245;-93
2023/04/21 11:06:36;;;;;;;10.93;9.60;;;20.00;24.60;;;;;;5052463;28;20205;-94
2023/04/21 11:09:03;;;;;;;13.52;10.82;;;19.70;25.50;;;;;;5051668;28;20218;-95
2023/04/21 11:11:30;;;;;;;11.77;10.57;;;19.50;28.70;;;;;;5050260;28;20215;-96
2023/04/21 11:14:08;;;;;;;11.20;10.05;;;19.30;27.70;;;;;;5058253;28;20201;-94
2023/04/21 11:16:55;;;;;;;12.02;10.18;;;19.20;27.60;;;;;;5048449;28;20206;-95
2023/04/21 11:19:30;;;;;;;14.70;9.52;;;19.30;28.00;;;;;;5036757;28;20203;-92
2023/04/21 11:25:05;;;;;;;11.95;10.40;;;18.90;28.00;;;;;;5267828;22;20462;-94
2023/04/21 11:27:32;;;;;;;10.82;9.70;;;18.90;28.20;;;;;;5028639;28;20214;-94
2023/04/21 11:30:07;;;;;;;9.40;8.50;;;18.50;30.80;;;;;;5032420;28;20313;-94
2023/04/21 11:41:05;;;;;;;9.18;8.05;;;18.70;29.20;;;;;;5033686;28;20261;-95
2023/04/21 12:08:16;;;;;;;4.72;4.20;;;18.70;24.70;;;;;;5131967;23;20244;-95
2023/04/21 12:14:06;;;;;;;4.85;4.28;;;18.70;26.10;;;;;;5026425;28;20272;-91
2023/04/21 12:16:33;;;;;;;5.07;4.57;;;18.30;25.30;;;;;;5023864;28;20198;-94
2023/04/21 12:19:00;;;;;;;4.75;4.35;;;18.50;26.40;;;;;;5002273;28;20220;-94
2023/04/21 12:21:29;;;;;;;5.53;4.88;;;18.50;26.60;;;;;;4990872;28;20710;-94
2023/04/21 12:26:58;;;;;;;5.15;4.50;;;18.40;27.00;;;;;;4991526;28;20253;-95
2023/04/21 12:29:24;;;;;;;5.20;4.70;;;18.40;27.10;;;;;;5004811;28;20223;-96
2023/04/21 12:34:32;;;;;;;4.43;4.03;;;18.30;26.10;;;;;;4963889;28;20596;-96
2023/04/21 12:39:40;;;;;;;4.57;3.90;;;18.50;25.60;;;;;;4984377;28;20225;-96
2023/04/21 12:44:49;;;;;;;3.42;3.10;;;18.50;23.40;;;;;;5010016;28;20265;-95
2023/04/21 12:47:16;;;;;;;2.88;2.50;;;18.50;23.60;;;;;;5017021;28;20298;-95
2023/04/21 12:49:43;;;;;;;2.80;2.60;;;18.10;23.40;;;;;;5016745;28;20219;-94
2023/04/21 12:52:31;;;;;;;2.80;2.60;;;17.90;24.10;;;;;;4966403;28;20274;-94
2023/04/21 12:57:40;;;;;;;3.95;2.50;;;18.00;24.20;;;;;;4993600;28;20726;-94
2023/04/21 13:00:11;;;;;;;7.13;2.67;;;18.20;23.80;;;;;;5007233;28;20200;-95
2023/04/21 13:03:00;;;;;;;3.88;2.10;;;18.20;22.90;;;;;;5000352;28;20215;-93
2023/04/21 13:05:27;;;;;;;2.40;2.20;;;18.30;22.60;;;;;;5011465;28;20199;-93
2023/04/21 13:07:54;;;;;;;2.55;2.35;;;18.30;21.90;;;;;;5006606;28;20199;-93
2023/04/21 13:10:21;;;;;;;3.65;2.53;;;18.10;22.00;;;;;;5012624;28;20230;-95
2023/04/21 13:15:30;;;;;;;2.83;2.53;;;18.30;22.20;;;;;;5003522;28;20226;-92
2023/04/21 13:17:57;;;;;;;23.10;19.17;;;18.40;22.70;;;;;;5003783;28;20215;-92
2023/04/21 13:20:24;;;;;;;3.10;2.80;;;18.50;23.00;;;;;;5009913;28;20195;-91
2023/04/21 13:22:51;;;;;;;4.05;2.42;;;18.60;23.30;;;;;;4995435;28;20231;-94
2023/04/21 13:25:18;;;;;;;2.90;2.70;;;18.40;24.20;;;;;;5008251;28;20203;-94
2023/04/21 13:27:45;;;;;;;3.33;2.90;;;18.20;24.70;;;;;;5004811;28;20265;-93
2023/04/21 13:33:00;;;;;;;3.60;3.08;;;18.50;24.30;;;;;;5006275;28;20206;-93
2023/04/21 13:35:26;;;;;;;4.82;2.85;;;18.50;24.40;;;;;;5029423;28;20206;-93
2023/04/21 13:40:59;;;;;;;3.95;2.47;;;18.50;24.90;;;;;;5003196;28;20741;-94
2023/04/21 13:43:26;;;;;;;3.00;2.70;;;18.70;23.80;;;;;;5011088;28;20283;-93
2023/04/21 13:48:35;;;;;;;3.30;2.53;;;18.80;23.20;;;;;;4999172;28;20207;-94
2023/04/21 13:51:02;;;;;;;3.15;2.83;;;18.80;21.90;;;;;;5006545;28;20705;-94
2023/04/21 13:53:39;;;;;;;2.58;2.38;;;18.80;22.20;;;;;;5007454;28;20261;-94
2023/04/21 13:56:27;;;;;;;2.78;2.58;;;18.80;22.00;;;;;;4983563;28;20226;-94
2023/04/21 13:58:54;;;;;;;2.67;2.47;;;18.70;22.50;;;;;;4995549;28;20687;-95
2023/04/21 14:09:46;;;;;;;2.58;2.38;;;18.90;22.70;;;;;;5038592;28;20233;-96
2023/04/21 14:17:36;;;;;;;3.72;2.80;;;18.80;24.40;;;;;;5024328;28;20280;-92
2023/04/21 14:25:26;;;;;;;2.65;2.40;;;19.10;24.10;;;;;;5246661;22;20757;-96
2023/04/21 14:30:35;;;;;;;2.38;2.17;;;18.90;22.50;;;;;;5041168;28;20268;-95
2023/04/21 14:33:02;;;;;;;2.30;2.10;;;18.90;22.20;;;;;;5034428;28;20186;-95
2023/04/21 14:35:31;;;;;;;2.88;2.67;;;18.90;21.50;;;;;;5115251;23;20208;-95
2023/04/21 14:37:59;;;;;;;2.35;2.15;;;18.80;21.50;;;;;;5065637;28;20206;-94
2023/04/21 14:46:43;;;;;;;2.05;1.80;;;19.00;20.80;;;;;;4935498;29;20308;-95
2023/04/21 14:52:25;;;;;;;2.40;2.17;;;18.80;21.00;;;;;;5050629;28;20210;-94
2023/04/21 14:54:54;;;;;;;3.75;2.30;;;18.90;21.20;;;;;;5055651;28;20201;-96
2023/04/21 14:57:21;;;;;;;3.10;2.33;;;18.90;21.40;;;;;;5037871;28;20205;-94
2023/04/21 14:59:50;;;;;;;2.35;2.00;;;18.90;21.80;;;;;;5032610;28;20199;-93
2023/04/21 15:02:18;;;;;;;3.58;1.90;;;19.00;21.70;;;;;;5038437;28;20284;-91
2023/04/21 15:04:45;;;;;;;1.95;1.85;;;19.10;21.10;;;;;;5039358;28;20600;-93
2023/04/21 15:07:12;;;;;;;2.00;1.80;;;19.20;20.90;;;;;;5052431;28;20206;-93
2023/04/21 15:09:44;;;;;;;1.90;1.80;;;19.20;20.90;;;;;;5043179;28;20198;-92
2023/04/21 15:12:12;;;;;;;2.38;2.10;;;19.10;20.60;;;;;;5047423;28;20198;-93
2023/04/21 15:14:39;;;;;;;2.10;2.00;;;19.00;19.70;;;;;;5035159;28;20268;-88
2023/04/21 15:17:07;;;;;;;2.60;2.10;;;18.80;20.10;;;;;;5051832;28;20208;-94
2023/04/21 15:19:34;;;;;;;2.20;2.00;;;18.60;20.50;;;;;;5056323;28;20210;-95
2023/04/21 15:27:26;;;;;;;2.20;2.00;;;18.60;20.20;;;;;;5043519;28;20280;-92
2023/04/21 15:29:55;;;;;;;2.33;2.05;;;18.80;21.00;;;;;;5047470;28;20218;-96
2023/04/21 15:32:22;;;;;;;2.28;2.08;;;18.90;20.90;;;;;;5059350;23;20234;-96
2023/04/21 15:34:49;;;;;;;2.00;1.90;;;19.00;20.60;;;;;;5342683;23;20225;-92
2023/04/21 15:37:17;;;;;;;2.05;1.95;;;18.90;20.30;;;;;;5039356;28;20198;-89
2023/04/21 15:39:46;;;;;;;2.08;1.95;;;18.80;19.90;;;;;;5043295;28;20214;-94
2023/04/21 15:42:13;;;;;;;2.33;1.90;;;18.80;20.30;;;;;;5014606;28;20591;-94
2023/04/21 15:44:40;;;;;;;2.10;2.00;;;18.90;19.60;;;;;;5051314;28;20199;-93
2023/04/21 15:49:48;;;;;;;3.90;2.17;;;19.10;19.40;;;;;;5040462;28;20699;-94
2023/04/21 15:55:16;;;;;;;2.40;2.20;;;19.30;19.80;;;;;;5039026;28;20309;-93
2023/04/21 15:57:43;;;;;;;9.32;8.10;;;19.20;19.80;;;;;;5150921;23;20237;-96
2023/04/21 16:00:11;;;;;;;2.30;2.10;;;19.00;20.00;;;;;;5041012;28;20202;-95
2023/04/21 16:02:58;;;;;;;2.88;2.67;;;19.00;20.40;;;;;;5186902;22;20213;-94
2023/04/21 16:05:25;;;;;;;2.20;2.03;;;19.00;20.30;;;;;;5021794;28;20217;-92
2023/04/21 16:07:52;;;;;;;3.38;1.92;;;18.90;20.60;;;;;;5041330;28;20199;-94
2023/04/21 16:13:16;;;;;;;2.47;1.83;;;18.80;19.80;;;;;;5034544;28;20214;-89
2023/04/21 16:15:43;;;;;;;3.17;2.00;;;18.70;19.90;;;;;;5028837;28;20192;-90
2023/04/21 16:18:10;;;;;;;2.17;1.98;;;18.60;20.00;;;;;;5031342;28;20238;-89
2023/04/21 16:20:37;;;;;;;3.05;1.90;;;18.60;20.40;;;;;;5016792;28;20667;-89
2023/04/21 16:23:04;;;;;;;2.05;1.95;;;18.60;20.60;;;;;;5035334;28;20199;-92
2023/04/21 16:25:33;;;;;;;4.28;1.80;;;18.60;20.60;;;;;;5035878;28;20214;-95
2023/04/21 16:28:00;;;;;;;2.20;2.00;;;18.40;20.70;;;;;;5034918;28;20202;-95
2023/04/21 16:30:29;;;;;;;3.33;1.80;;;18.20;21.50;;;;;;5035146;28;20695;-93
2023/04/21 16:32:56;;;;;;;3.70;2.35;;;18.20;21.80;;;;;;5036006;28;20222;-93
2023/04/21 16:35:25;;;;;;;2.20;2.00;;;18.10;22.10;;;;;;5030364;28;20230;-92
2023/04/21 16:37:52;;;;;;;2.45;2.05;;;18.20;22.20;;;;;;5030459;28;20264;-95
2023/04/21 16:40:21;;;;;;;2.47;2.17;;;18.20;22.50;;;;;;5018324;28;20209;-91
2023/04/21 16:42:50;;;;;;;3.30;1.85;;;18.20;22.90;;;;;;5015018;28;20209;-92
2023/04/21 16:45:17;;;;;;;2.30;2.10;;;18.10;22.30;;;;;;5039334;28;20217;-95
2023/04/21 16:47:44;;;;;;;2.50;2.30;;;18.10;22.80;;;;;;5035743;28;20302;-94
2023/04/21 16:50:11;;;;;;;2.45;2.22;;;18.10;22.80;;;;;;5031282;28;20202;-92
2023/04/21 16:52:38;;;;;;;2.28;2.15;;;18.10;22.40;;;;;;5019548;28;20207;-93
2023/04/21 16:55:06;;;;;;;3.20;1.98;;;18.10;22.50;;;;;;5034126;28;20203;-93
2023/04/21 16:57:35;;;;;;;2.72;2.53;;;18.10;22.50;;;;;;4999173;28;20274;-91
2023/04/21 17:00:05;;;;;;;2.40;2.20;;;18.00;22.80;;;;;;5031861;28;20207;-92
2023/04/21 17:02:32;;;;;;;2.97;2.40;;;18.00;22.90;;;;;;5029073;28;20229;-88
2023/04/21 17:05:00;;;;;;;2.30;2.10;;;17.90;24.50;;;;;;5006332;28;20215;-88
2023/04/21 17:07:27;;;;;;;2.40;2.20;;;17.80;23.50;;;;;;5024794;28;20207;-88
2023/04/21 17:09:54;;;;;;;2.47;2.20;;;17.70;24.20;;;;;;5026964;28;20244;-88
2023/04/21 17:12:21;;;;;;;3.00;2.30;;;17.60;24.70;;;;;;5032761;28;20230;-90
2023/04/21 17:14:48;;;;;;;3.28;2.70;;;17.50;24.70;;;;;;5030717;28;20202;-88
2023/04/21 17:20:00;;;;;;;2.63;1.90;;;17.30;24.90;;;;;;5034678;28;20593;-95
2023/04/21 17:22:27;;;;;;;3.10;2.20;;;17.30;25.50;;;;;;5045937;28;20232;-94
2023/04/21 17:24:53;;;;;;;2.83;2.53;;;17.30;25.60;;;;;;5015186;28;20209;-95
2023/04/21 17:27:20;;;;;;;2.75;2.55;;;17.20;25.60;;;;;;5029490;28;20209;-94
2023/04/21 17:29:47;;;;;;;2.50;2.30;;;17.20;25.70;;;;;;5016044;28;20228;-90
2023/04/21 17:34:57;;;;;;;2.42;2.22;;;17.00;27.00;;;;;;5029246;28;20213;-89
2023/04/21 17:37:24;;;;;;;2.90;2.25;;;16.90;27.30;;;;;;5035670;28;20202;-95
2023/04/21 17:39:52;;;;;;;2.65;2.30;;;16.80;27.70;;;;;;5034662;28;20202;-88
2023/04/21 17:42:19;;;;;;;3.63;2.40;;;16.90;28.20;;;;;;5021132;28;20203;-91
2023/04/21 17:44:46;;;;;;;2.53;2.30;;;16.80;30.50;;;;;;5012096;28;20562;-92